createdAt,value
2019-03-23T00:01:51.410Z,7.18
2019-03-23T00:04:21.205Z,7.10
2019-03-23T00:06:50.922Z,6.86
2019-03-23T00:09:20.714Z,6.97
2019-03-23T00:11:50.493Z,7.00
2019-03-23T00:14:20.184Z,7.04
2019-03-23T00:16:49.943Z,7.04
2019-03-23T00:19:19.635Z,7.07
2019-03-23T00:21:49.366Z,7.04
2019-03-23T00:24:19.046Z,7.00
2019-03-23T00:26:49.056Z,6.99
2019-03-23T00:29:18.794Z,6.85
2019-03-23T00:31:48.486Z,6.88
2019-03-23T00:34:47.850Z,6.74
2019-03-23T00:37:21.128Z,6.64
2019-03-23T00:39:50.918Z,6.61
2019-03-23T00:42:20.681Z,6.51
2019-03-23T00:44:50.402Z,6.51
2019-03-23T00:47:20.107Z,6.50
2019-03-23T00:49:49.847Z,6.43
2019-03-23T00:52:19.561Z,6.38
2019-03-23T00:54:49.257Z,6.39
2019-03-23T00:57:19.004Z,6.31
2019-03-23T00:59:49.017Z,6.36
2019-03-23T01:02:18.797Z,6.41
2019-03-23T01:04:48.533Z,6.28
2019-03-23T01:07:18.250Z,6.32
2019-03-23T01:09:48.056Z,6.32
2019-03-23T01:12:17.843Z,6.31
2019-03-23T01:14:47.531Z,6.43
2019-03-23T01:17:17.276Z,6.46
2019-03-23T01:19:47.028Z,6.51
2019-03-23T01:22:16.757Z,6.36
2019-03-23T01:24:46.560Z,6.45
2019-03-23T01:27:16.301Z,6.46
2019-03-23T01:29:46.042Z,6.43
2019-03-23T01:32:15.855Z,6.50
2019-03-23T01:34:45.588Z,6.46
2019-03-23T01:37:15.325Z,6.65
2019-03-23T01:39:45.112Z,6.62
2019-03-23T01:42:14.838Z,6.70
2019-03-23T01:44:44.540Z,6.69
2019-03-23T01:47:14.279Z,6.70
2019-03-23T01:49:43.976Z,6.60
2019-03-23T01:52:13.715Z,6.79
2019-03-23T01:54:43.396Z,6.78
2019-03-23T01:57:13.168Z,6.84
2019-03-23T01:59:42.874Z,6.75
2019-03-23T02:02:12.722Z,6.91
2019-03-23T02:04:42.463Z,6.77
2019-03-23T02:07:14.053Z,6.88
2019-03-23T02:09:43.613Z,6.84
2019-03-23T02:12:13.330Z,6.94
2019-03-23T02:14:43.071Z,7.07
2019-03-23T02:17:12.786Z,7.04
2019-03-23T02:19:42.525Z,7.11
2019-03-23T02:22:12.314Z,7.08
2019-03-23T02:24:42.004Z,7.07
2019-03-23T02:27:11.826Z,7.12
2019-03-23T02:29:41.511Z,7.14
2019-03-23T02:32:11.245Z,7.10
2019-03-23T02:34:40.951Z,7.08
2019-03-23T02:37:10.720Z,7.15
2019-03-23T02:39:40.440Z,7.22
2019-03-23T02:42:10.155Z,7.19
2019-03-23T02:44:39.927Z,7.19
2019-03-23T02:47:09.917Z,7.24
2019-03-23T02:49:39.609Z,7.26
2019-03-23T02:52:09.394Z,7.26
2019-03-23T02:54:39.121Z,7.22
2019-03-23T02:57:08.941Z,7.24
2019-03-23T02:59:38.802Z,7.25
2019-03-23T03:02:08.696Z,7.22
2019-03-23T03:04:38.477Z,7.31
2019-03-23T03:07:08.214Z,7.34
2019-03-23T03:09:37.915Z,7.34
2019-03-23T03:12:07.654Z,7.36
2019-03-23T03:14:37.393Z,7.39
2019-03-23T03:17:07.121Z,7.47
2019-03-23T03:19:36.850Z,7.43
2019-03-23T03:22:06.542Z,7.49
2019-03-23T03:24:36.307Z,7.58
2019-03-23T03:27:06.005Z,7.51
2019-03-23T03:29:35.717Z,7.56
2019-03-23T03:32:05.480Z,7.60
2019-03-23T03:34:36.524Z,7.63
2019-03-23T03:37:06.196Z,7.63
2019-03-23T03:39:36.009Z,7.67
2019-03-23T03:42:05.924Z,7.65
2019-03-23T03:44:35.630Z,7.56
2019-03-23T03:47:05.358Z,7.65
2019-03-23T03:49:35.188Z,7.66
2019-03-23T03:52:05.100Z,7.68
2019-03-23T03:54:34.783Z,7.69
2019-03-23T03:57:04.452Z,7.67
2019-03-23T03:59:34.215Z,7.66
2019-03-23T04:02:03.971Z,7.57
2019-03-23T04:04:33.730Z,7.60
2019-03-23T04:07:05.937Z,7.62
2019-03-23T04:09:35.683Z,7.59
2019-03-23T04:12:05.433Z,7.56
2019-03-23T04:14:35.255Z,7.53
2019-03-23T04:17:04.953Z,7.47
2019-03-23T04:19:34.708Z,7.40
2019-03-23T04:22:04.431Z,7.36
2019-03-23T04:24:34.174Z,7.30
2019-03-23T04:27:05.125Z,7.24
2019-03-23T04:29:35.111Z,7.25
2019-03-23T04:32:05.739Z,7.24
2019-03-23T04:34:35.485Z,7.31
2019-03-23T04:37:05.199Z,7.34
2019-03-23T04:39:34.949Z,7.39
2019-03-23T04:42:04.677Z,7.44
2019-03-23T04:44:34.396Z,7.46
2019-03-23T04:47:04.077Z,7.49
2019-03-23T04:49:33.896Z,7.54
2019-03-23T04:52:03.589Z,7.56
2019-03-23T04:54:33.305Z,7.57
2019-03-23T04:57:03.748Z,7.58
2019-03-23T04:59:33.625Z,7.62
2019-03-23T05:02:03.377Z,7.66
2019-03-23T05:04:33.114Z,7.66
2019-03-23T05:07:02.889Z,7.68
2019-03-23T05:09:32.582Z,7.63
2019-03-23T05:12:02.583Z,7.71
2019-03-23T05:14:32.307Z,7.70
2019-03-23T05:17:02.009Z,7.69
2019-03-23T05:19:31.743Z,7.63
2019-03-23T05:22:04.059Z,7.65
2019-03-23T05:24:33.789Z,7.63
2019-03-23T05:27:03.504Z,7.60
2019-03-23T05:29:33.229Z,7.66
2019-03-23T05:32:03.021Z,7.65
2019-03-23T05:34:32.746Z,7.60
2019-03-23T05:37:02.429Z,7.56
2019-03-23T05:39:32.131Z,7.70
2019-03-23T05:42:02.266Z,7.73
2019-03-23T05:44:32.177Z,7.77
2019-03-23T05:47:01.883Z,7.79
2019-03-23T05:49:31.644Z,7.78
2019-03-23T05:52:03.776Z,7.74
2019-03-23T05:54:33.479Z,7.70
2019-03-23T05:57:03.203Z,7.68
2019-03-23T05:59:32.907Z,7.67
2019-03-23T06:02:02.692Z,7.68
2019-03-23T06:04:32.461Z,7.69
2019-03-23T06:07:02.154Z,7.71
2019-03-23T06:09:31.893Z,7.73
2019-03-23T06:12:02.247Z,7.75
2019-03-23T06:14:31.942Z,7.80
2019-03-23T06:17:02.302Z,7.83
2019-03-23T06:19:31.988Z,7.89
2019-03-23T06:22:02.531Z,7.94
2019-03-23T06:24:32.256Z,7.96
2019-03-23T06:27:01.966Z,7.98
2019-03-23T06:29:31.873Z,8.04
2019-03-23T06:32:01.649Z,8.05
2019-03-23T06:34:31.299Z,8.09
2019-03-23T06:37:02.744Z,8.13
2019-03-23T06:39:32.433Z,8.23
2019-03-23T06:42:02.171Z,8.26
2019-03-23T06:44:31.896Z,8.32
2019-03-23T06:47:01.620Z,8.41
2019-03-23T06:49:31.386Z,8.45
2019-03-23T06:52:01.081Z,8.53
2019-03-23T06:54:30.874Z,8.55
2019-03-23T06:57:00.797Z,8.62
2019-03-23T06:59:30.526Z,8.70
2019-03-23T07:02:00.235Z,8.77
2019-03-23T07:04:30.237Z,8.83
2019-03-23T07:07:00.004Z,8.84
2019-03-23T07:09:29.692Z,8.87
2019-03-23T07:11:59.415Z,8.90
2019-03-23T07:14:29.397Z,8.94
2019-03-23T07:16:59.083Z,9.00
2019-03-23T07:19:28.903Z,8.99
2019-03-23T07:21:58.691Z,8.90
2019-03-23T07:24:28.391Z,8.85
2019-03-23T07:26:58.169Z,8.90
2019-03-23T07:29:27.883Z,8.99
2019-03-23T07:32:05.600Z,9.06
2019-03-23T07:34:29.509Z,9.00
2019-03-23T07:37:00.660Z,9.02
2019-03-23T07:39:30.698Z,9.12
2019-03-23T07:42:00.456Z,9.20
2019-03-23T07:44:30.245Z,9.25
2019-03-23T07:46:59.968Z,9.29
2019-03-23T07:49:29.651Z,9.50
2019-03-23T07:51:59.396Z,9.49
2019-03-23T07:54:29.110Z,9.47
2019-03-23T07:56:58.911Z,9.54
2019-03-23T07:59:28.707Z,9.58
2019-03-23T08:01:58.401Z,9.72
2019-03-23T08:04:28.544Z,9.80
2019-03-23T08:06:58.324Z,9.88
2019-03-23T08:09:37.350Z,9.95
2019-03-23T08:11:59.528Z,10.01
2019-03-23T08:14:29.249Z,10.01
2019-03-23T08:16:59.031Z,9.77
2019-03-23T08:19:28.861Z,9.88
2019-03-23T08:21:58.711Z,10.07
2019-03-23T08:24:28.420Z,9.89
2019-03-23T08:26:58.125Z,10.02
2019-03-23T08:29:27.875Z,9.86
2019-03-23T08:31:57.654Z,9.93
2019-03-23T08:34:27.950Z,9.96
2019-03-23T08:36:57.658Z,10.04
2019-03-23T08:39:27.402Z,10.22
2019-03-23T08:41:57.106Z,10.30
2019-03-23T08:44:26.810Z,10.33
2019-03-23T08:46:56.546Z,10.26
2019-03-23T08:49:28.563Z,10.24
2019-03-23T08:51:57.866Z,10.27
2019-03-23T08:54:27.594Z,10.12
2019-03-23T08:56:57.327Z,10.16
2019-03-23T08:59:27.048Z,10.07
2019-03-23T09:01:56.765Z,10.05
2019-03-23T09:04:26.571Z,10.06
2019-03-23T09:06:56.566Z,10.12
2019-03-23T09:09:26.267Z,10.17
2019-03-23T09:11:55.973Z,9.99
2019-03-23T09:14:25.709Z,10.33
2019-03-23T09:16:55.468Z,10.42
2019-03-23T09:19:25.460Z,10.41
2019-03-23T09:21:55.273Z,10.23
2019-03-23T09:24:24.987Z,10.35
2019-03-23T09:26:55.027Z,10.25
2019-03-23T09:29:24.848Z,10.49
2019-03-23T09:31:54.584Z,10.58
2019-03-23T09:34:25.167Z,10.44
2019-03-23T09:36:55.003Z,10.62
2019-03-23T09:39:24.964Z,10.73
2019-03-23T09:41:54.685Z,10.86
2019-03-23T09:44:24.400Z,10.31
2019-03-23T09:46:54.204Z,10.51
2019-03-23T09:49:23.960Z,10.58
2019-03-23T09:51:53.724Z,10.74
2019-03-23T09:54:23.493Z,10.37
2019-03-23T09:56:53.290Z,10.79
2019-03-23T09:59:23.039Z,10.72
2019-03-23T10:01:52.752Z,10.97
2019-03-23T10:04:22.464Z,11.06
2019-03-23T10:06:52.177Z,10.50
2019-03-23T10:09:22.001Z,10.79
2019-03-23T10:11:51.731Z,10.74
2019-03-23T10:14:21.465Z,10.51
2019-03-23T10:16:51.207Z,10.99
2019-03-23T10:19:23.186Z,11.12
2019-03-23T10:21:52.357Z,10.68
2019-03-23T10:24:22.150Z,10.72
2019-03-23T10:26:52.322Z,10.98
2019-03-23T10:29:22.195Z,10.89
2019-03-23T10:31:51.935Z,11.03
2019-03-23T10:34:21.709Z,10.98
2019-03-23T10:36:51.576Z,11.07
2019-03-23T10:39:21.370Z,11.28
2019-03-23T10:41:51.417Z,11.00
2019-03-23T10:44:21.213Z,10.86
2019-03-23T10:46:51.011Z,11.23
2019-03-23T10:49:20.778Z,11.47
2019-03-23T10:51:50.524Z,11.54
2019-03-23T10:54:20.473Z,11.18
2019-03-23T10:56:50.259Z,11.39
2019-03-23T10:59:20.229Z,11.60
2019-03-23T11:01:51.339Z,11.31
2019-03-23T11:04:21.059Z,11.71
2019-03-23T11:06:51.086Z,11.32
2019-03-23T11:09:20.774Z,11.59
2019-03-23T11:11:50.750Z,11.53
2019-03-23T11:14:20.600Z,11.77
2019-03-23T11:16:50.392Z,11.78
2019-03-23T11:19:20.264Z,11.69
2019-03-23T11:21:50.998Z,11.74
2019-03-23T11:24:20.700Z,12.02
2019-03-23T11:26:50.398Z,11.60
2019-03-23T11:29:20.304Z,11.91
2019-03-23T11:31:50.077Z,11.93
2019-03-23T11:34:19.824Z,12.15
2019-03-23T11:36:49.589Z,11.92
2019-03-23T11:39:19.280Z,12.12
2019-03-23T11:41:49.018Z,12.34
2019-03-23T11:44:18.742Z,12.21
2019-03-23T11:46:48.482Z,12.04
2019-03-23T11:49:18.199Z,12.30
2019-03-23T11:51:48.549Z,11.93
2019-03-23T11:54:18.263Z,12.12
2019-03-23T11:56:48.011Z,12.11
2019-03-23T11:59:17.742Z,12.02
2019-03-23T12:01:51.760Z,12.24
2019-03-23T12:04:18.950Z,12.04
2019-03-23T12:06:48.711Z,12.12
2019-03-23T12:09:18.404Z,12.05
2019-03-23T12:11:48.130Z,11.96
2019-03-23T12:14:17.878Z,12.15
2019-03-23T12:16:47.615Z,12.24
2019-03-23T12:19:17.312Z,12.07
2019-03-23T12:21:47.024Z,12.36
2019-03-23T12:24:16.860Z,12.69
2019-03-23T12:26:46.592Z,12.65
2019-03-23T12:29:16.291Z,12.87
2019-03-23T12:31:46.036Z,12.80
2019-03-23T12:34:16.019Z,12.56
2019-03-23T12:36:45.830Z,12.61
2019-03-23T12:39:15.521Z,12.59
2019-03-23T12:41:45.230Z,12.18
2019-03-23T12:44:15.012Z,12.06
2019-03-23T12:46:48.439Z,12.16
2019-03-23T12:49:16.173Z,12.54
2019-03-23T12:51:45.905Z,12.66
2019-03-23T12:54:15.706Z,12.51
2019-03-23T12:56:45.538Z,12.44
2019-03-23T12:59:15.297Z,12.35
2019-03-23T13:01:45.040Z,12.21
2019-03-23T13:04:14.744Z,12.04
2019-03-23T13:06:44.481Z,11.92
2019-03-23T13:09:14.215Z,11.74
2019-03-23T13:11:43.918Z,11.75
2019-03-23T13:14:13.619Z,11.96
2019-03-23T13:16:43.548Z,11.75
2019-03-23T13:19:13.262Z,11.81
2019-03-23T13:21:42.952Z,11.93
2019-03-23T13:24:12.691Z,11.74
2019-03-23T13:26:43.111Z,11.22
2019-03-23T13:29:12.830Z,11.17
2019-03-23T13:31:42.625Z,11.31
2019-03-23T13:34:12.329Z,11.07
2019-03-23T13:36:42.080Z,11.29
2019-03-23T13:39:11.764Z,11.17
2019-03-23T13:41:51.218Z,11.04
2019-03-23T13:44:21.257Z,11.02
2019-03-23T13:46:50.930Z,10.89
2019-03-23T13:49:20.672Z,10.55
2019-03-23T13:51:50.394Z,10.46
2019-03-23T13:54:20.078Z,10.36
2019-03-23T13:56:49.841Z,10.41
2019-03-23T13:59:19.532Z,10.13
2019-03-23T14:01:49.365Z,10.08
2019-03-23T14:04:19.136Z,9.97
2019-03-23T14:06:48.955Z,9.94
2019-03-23T14:09:18.705Z,10.16
2019-03-23T14:11:54.920Z,10.08
2019-03-23T14:14:20.013Z,10.11
2019-03-23T14:16:49.857Z,10.02
2019-03-23T14:19:19.584Z,10.18
2019-03-23T14:21:49.334Z,10.09
2019-03-23T14:24:19.140Z,10.26
2019-03-23T14:26:48.991Z,10.19
2019-03-23T14:29:18.709Z,10.38
2019-03-23T14:31:48.473Z,10.36
2019-03-23T14:34:18.221Z,10.46
2019-03-23T14:36:47.938Z,10.54
2019-03-23T14:39:17.746Z,10.45
2019-03-23T14:41:47.461Z,10.50
2019-03-23T14:44:17.192Z,10.47
2019-03-23T14:46:46.903Z,10.44
2019-03-23T14:49:16.629Z,10.39
2019-03-23T14:51:46.386Z,10.37
2019-03-23T14:54:16.081Z,10.26
2019-03-23T14:56:45.867Z,10.18
2019-03-23T14:59:15.629Z,10.41
2019-03-23T15:01:45.433Z,10.15
2019-03-23T15:04:15.222Z,10.22
2019-03-23T15:06:44.987Z,10.20
2019-03-23T15:09:15.069Z,10.24
2019-03-23T15:11:44.763Z,10.23
2019-03-23T15:14:14.578Z,10.52
2019-03-23T15:16:44.306Z,10.41
2019-03-23T15:19:15.607Z,10.40
2019-03-23T15:21:45.616Z,10.51
2019-03-23T15:24:15.340Z,10.37
2019-03-23T15:26:45.069Z,10.35
2019-03-23T15:29:14.839Z,10.32
2019-03-23T15:31:44.634Z,10.54
2019-03-23T15:34:14.530Z,10.68
2019-03-23T15:36:44.256Z,10.56
2019-03-23T15:39:14.105Z,10.73
2019-03-23T15:41:43.786Z,10.34
2019-03-23T15:44:13.537Z,10.25
2019-03-23T15:46:43.287Z,10.30
2019-03-23T15:49:13.033Z,10.25
2019-03-23T15:51:42.726Z,10.70
2019-03-23T15:54:12.453Z,10.57
2019-03-23T15:56:42.157Z,10.58
2019-03-23T15:59:11.887Z,10.55
2019-03-23T16:01:42.059Z,10.77
2019-03-23T16:04:11.806Z,10.92
2019-03-23T16:06:41.626Z,11.50
2019-03-23T16:09:11.332Z,11.69
2019-03-23T16:11:41.080Z,11.68
2019-03-23T16:14:10.827Z,12.49
2019-03-23T16:16:40.645Z,13.14
2019-03-23T16:19:10.346Z,12.87
2019-03-23T16:21:40.087Z,12.47
2019-03-23T16:24:09.825Z,12.26
2019-03-23T16:26:39.622Z,11.24
2019-03-23T16:29:09.774Z,11.45
2019-03-23T16:31:39.558Z,11.74
2019-03-23T16:34:09.271Z,11.48
2019-03-23T16:36:39.023Z,12.17
2019-03-23T16:39:08.794Z,11.73
2019-03-23T16:41:38.489Z,12.60
2019-03-23T16:44:08.646Z,11.86
2019-03-23T16:46:38.362Z,12.03
2019-03-23T16:49:08.103Z,13.01
2019-03-23T16:51:37.912Z,12.88
2019-03-23T16:54:07.677Z,12.59
2019-03-23T16:56:40.474Z,11.59
2019-03-23T16:59:10.176Z,11.63
2019-03-23T17:01:39.920Z,11.21
2019-03-23T17:04:09.664Z,11.36
2019-03-23T17:06:46.214Z,11.40
2019-03-23T17:09:11.107Z,10.80
2019-03-23T17:11:40.899Z,10.85
2019-03-23T17:14:10.612Z,10.93
2019-03-23T17:16:40.362Z,10.69
2019-03-23T17:19:10.188Z,10.44
2019-03-23T17:21:40.069Z,10.46
2019-03-23T17:24:09.906Z,10.32
2019-03-23T17:26:39.998Z,10.18
2019-03-23T17:29:09.708Z,10.12
2019-03-23T17:31:39.437Z,10.17
2019-03-23T17:34:09.298Z,10.23
2019-03-23T17:36:39.029Z,10.06
2019-03-23T17:39:11.743Z,9.93
2019-03-23T17:41:41.586Z,9.94
2019-03-23T17:44:11.377Z,9.64
2019-03-23T17:46:41.066Z,9.56
2019-03-23T17:49:10.794Z,9.49
2019-03-23T17:51:40.516Z,9.37
2019-03-23T17:54:10.207Z,9.22
2019-03-23T17:56:40.040Z,9.23
2019-03-23T17:59:09.780Z,9.09
2019-03-23T18:01:39.504Z,8.99
2019-03-23T18:04:09.195Z,8.94
2019-03-23T18:06:38.955Z,8.89
2019-03-23T18:09:09.070Z,8.81
2019-03-23T18:11:38.763Z,8.74
2019-03-23T18:14:08.497Z,8.68
2019-03-23T18:16:38.223Z,8.59
2019-03-23T18:19:08.001Z,8.54
2019-03-23T18:21:37.805Z,8.55
2019-03-23T18:24:08.006Z,8.49
2019-03-23T18:26:37.781Z,8.45
2019-03-23T18:29:07.877Z,8.45
2019-03-23T18:31:37.572Z,8.38
2019-03-23T18:34:07.355Z,8.29
2019-03-23T18:36:37.078Z,8.22
2019-03-23T18:39:07.817Z,8.19
2019-03-23T18:41:37.668Z,8.08
2019-03-23T18:44:15.802Z,8.07
2019-03-23T18:46:39.135Z,8.02
2019-03-23T18:49:08.952Z,7.88
2019-03-23T18:51:38.832Z,7.87
2019-03-23T18:54:08.698Z,7.84
2019-03-23T18:56:38.424Z,7.79
2019-03-23T18:59:08.260Z,7.73
2019-03-23T19:01:38.115Z,7.73
2019-03-23T19:04:07.926Z,7.60
2019-03-23T19:06:37.715Z,7.54
2019-03-23T19:09:08.218Z,7.51
2019-03-23T19:11:37.975Z,7.38
2019-03-23T19:14:07.757Z,7.29
2019-03-23T19:16:37.483Z,7.24
2019-03-23T19:19:07.224Z,7.22
2019-03-23T19:21:36.930Z,7.16
2019-03-23T19:24:06.804Z,7.11
2019-03-23T19:26:36.884Z,7.14
2019-03-23T19:29:06.673Z,7.16
2019-03-23T19:31:36.379Z,7.07
2019-03-23T19:34:06.216Z,7.10
2019-03-23T19:36:36.076Z,7.03
2019-03-23T19:39:08.532Z,6.98
2019-03-23T19:41:38.266Z,6.93
2019-03-23T19:44:08.019Z,6.85
2019-03-23T19:46:37.781Z,6.76
2019-03-23T19:49:07.525Z,6.73
2019-03-23T19:51:37.261Z,6.63
2019-03-23T19:54:06.997Z,6.66
2019-03-23T19:56:36.785Z,6.57
2019-03-23T19:59:06.525Z,6.48
2019-03-23T20:01:36.301Z,6.42
2019-03-23T20:04:06.206Z,6.34
2019-03-23T20:06:35.924Z,6.24
2019-03-23T20:09:07.769Z,6.10
2019-03-23T20:11:37.501Z,6.00
2019-03-23T20:14:07.284Z,6.01
2019-03-23T20:16:37.363Z,5.96
2019-03-23T20:19:08.148Z,5.88
2019-03-23T20:21:37.975Z,5.95
2019-03-23T20:24:07.838Z,5.94
2019-03-23T20:26:37.619Z,5.90
2019-03-23T20:29:09.221Z,5.85
2019-03-23T20:31:39.029Z,5.89
2019-03-23T20:34:08.911Z,5.75
2019-03-23T20:36:38.671Z,5.69
2019-03-23T20:39:08.594Z,5.66
2019-03-23T20:41:38.337Z,5.61
2019-03-23T20:44:09.691Z,5.62
2019-03-23T20:46:43.538Z,5.59
2019-03-23T20:49:13.457Z,5.58
2019-03-23T20:51:44.747Z,5.51
2019-03-23T20:54:14.565Z,5.52
2019-03-23T20:56:44.712Z,5.51
2019-03-23T20:59:15.724Z,5.46
2019-03-23T21:01:45.567Z,5.37
2019-03-23T21:04:15.258Z,5.36
2019-03-23T21:06:45.153Z,5.28
2019-03-23T21:09:15.123Z,5.15
2019-03-23T21:11:44.862Z,5.06
2019-03-23T21:14:20.306Z,5.08
2019-03-23T21:16:46.105Z,4.92
2019-03-23T21:19:15.813Z,4.90
2019-03-23T21:21:45.563Z,4.83
2019-03-23T21:24:15.336Z,4.75
2019-03-23T21:26:45.332Z,4.73
2019-03-23T21:29:15.988Z,4.68
2019-03-23T21:31:45.752Z,4.53
2019-03-23T21:34:15.623Z,4.55
2019-03-23T21:36:45.339Z,4.53
2019-03-23T21:39:15.027Z,4.41
2019-03-23T21:41:44.823Z,4.38
2019-03-23T21:44:14.533Z,4.49
2019-03-23T21:46:44.253Z,4.34
2019-03-23T21:49:14.249Z,4.31
2019-03-23T21:51:43.946Z,4.36
2019-03-23T21:54:13.702Z,4.46
2019-03-23T21:59:13.998Z,4.46
2019-03-23T22:01:43.826Z,4.41
2019-03-23T22:04:13.521Z,4.32
2019-03-23T22:06:43.254Z,4.32
2019-03-23T22:09:12.997Z,4.27
2019-03-23T22:11:43.058Z,4.17
2019-03-23T22:14:12.744Z,4.13
2019-03-23T22:16:42.447Z,4.06
2019-03-23T22:19:12.493Z,4.04
2019-03-23T22:21:42.198Z,4.07
2019-03-23T22:24:11.915Z,4.03
2019-03-23T22:26:41.650Z,3.73
2019-03-23T22:29:11.536Z,3.83
2019-03-23T22:31:41.238Z,3.70
2019-03-23T22:34:10.940Z,3.57
2019-03-23T22:36:40.674Z,3.48
2019-03-23T22:39:10.382Z,3.52
2019-03-23T22:41:40.083Z,3.35
2019-03-23T22:44:09.879Z,3.30
2019-03-23T22:46:39.572Z,3.35
2019-03-23T22:49:09.349Z,3.54
2019-03-23T22:51:39.059Z,3.65
2019-03-23T22:54:08.814Z,3.64
2019-03-23T22:56:38.528Z,3.43
2019-03-23T22:59:08.322Z,3.42
2019-03-23T23:01:38.050Z,3.41
2019-03-23T23:04:07.871Z,3.31
2019-03-23T23:06:37.567Z,3.50
2019-03-23T23:09:10.125Z,3.44
2019-03-23T23:11:39.900Z,3.34
2019-03-23T23:14:09.579Z,3.13
2019-03-23T23:16:39.312Z,3.02
2019-03-23T23:19:09.271Z,3.01
2019-03-23T23:21:39.011Z,3.23
2019-03-23T23:24:08.749Z,3.05
2019-03-23T23:26:38.474Z,3.01
2019-03-23T23:29:08.221Z,3.01
2019-03-23T23:31:37.938Z,2.95
2019-03-23T23:34:07.664Z,3.12
2019-03-23T23:36:37.387Z,2.99
2019-03-23T23:39:08.417Z,2.94
2019-03-23T23:41:38.138Z,2.85
2019-03-23T23:44:07.807Z,2.81
2019-03-23T23:46:37.542Z,2.76
2019-03-23T23:49:07.274Z,2.89
2019-03-23T23:51:36.965Z,2.81
2019-03-23T23:54:06.635Z,2.74
2019-03-23T23:56:36.393Z,2.73
2019-03-23T23:59:06.100Z,2.93
